Flight Track Log - Related Links

Times and Time Zones

All times are in EDT time to prevent confusion due to time zone crossing. See the GTH126 flight status page for this flight to view local times or setup timezone preferences in your user account.

Time Position Orientation Groundspeed Altitude Reporting Facility
EDT Latitude Longitude Course Direction KTS MPH feet Rate Location/Type
Thu 06:50:39 PM 40.1500 -75.0500 336° Northwest 223 257 3,100  Level Philadelphia TRACON
Thu 06:51:11 PM 40.1833 -75.0667 339° North 253 291 3,800 587 Climbing New York TRACON
Thu 06:52:11 PM 40.2500 -75.0500 11° North 260 299 4,000 95 Climbing New York TRACON
Thu 06:53:17 PM 40.3167 -74.9833 37° Northeast 271 312 4,000  Level New York TRACON
Thu 06:54:17 PM 40.3833 -74.9333 30° Northeast 267 307 4,000  Level New York TRACON
Thu 06:55:11 PM 40.4333 -74.8833 37° Northeast 269 310 4,000  Level New York TRACON
Thu 06:56:11 PM 40.5000 -74.8333 30° Northeast 272 313 4,000  Level New York TRACON
Thu 06:57:11 PM 40.5500 -74.7667 45° Northeast 274 315 4,000  Level New York TRACON
Thu 06:58:11 PM 40.6167 -74.7167 30° Northeast 268 308 4,000  Level New York TRACON
Thu 06:59:11 PM 40.6833 -74.6667 30° Northeast 274 315 4,000  Level New York TRACON
Thu 07:00:11 PM 40.7500 -74.6333 21° North 268 308 4,000  Level New York TRACON
Thu 07:01:11 PM 40.8167 -74.5833 30° Northeast 267 307 4,000  Level New York TRACON
Thu 07:02:11 PM 40.8833 -74.5333 30° Northeast 260 299 4,000  Level New York TRACON
Thu 07:03:17 PM 40.9333 -74.4500 52° Northeast 270 311 4,000 -150 Level New York TRACON
Thu 07:04:11 PM 40.9833 -74.3833 45° Northeast 272 313 3,700 -500 Descending New York TRACON
Thu 07:05:17 PM 41.0167 -74.3000 62° Northeast 264 304 3,000 -429 Descending New York TRACON
Thu 07:06:17 PM 41.0333 -74.2167 75° East 230 265 2,800 -500 Descending New York TRACON
Thu 07:07:17 PM 41.0167 -74.1500 108° East 211 243 2,000 -400 Descending New York TRACON
Thu 07:08:17 PM 41.0000 -74.0833 108° East 188 216 2,000  Level New York TRACON
Thu 07:09:17 PM 40.9500 -74.0500 153° Southeast 166 191 2,000 -450 Level New York TRACON
Thu 07:10:17 PM 40.9000 -74.0500 180° South 157 181 1,100 -850 Descending New York TRACON
Thu 07:11:17 PM 40.8667 -74.0500 180° South 134 154 300 -800 Descending New York TRACON
Thu 07:13:00 PM 40.8500 -74.0500 180° South  Level FlightAware Approximate
Thu 07:20:00 PM 40.8501 -74.0608 180° South  Level Estimated

Login

Don't have an account? Register now (free) for customized features, flight alerts, and more!